x

9440910 - Toke Point, Wa (tokw1) Weather Station

8:54 - Sat 25th Oct 2014 All times are PDT. -7 hours from GMT.

  • Wind
    17mph, 20mph gusts
  • Luft Temp 56°f
  • Sea Pressure 996.2mb
  • 9440910 - Toke Point, Wa
  • 9440910 - Toke Point, Wa

More Historic Weather Station data

Upgrade to MSW Pro to gain access to the past 30 days of data for over 8000 Wavebouys and Weather Stations around the globe.

Join Pro

Comparision Forecast

View Surf forecast
   
Sa 10/25 8:54 17 20 mph 996.2mb 56f
8:48 17 20 mph 996.3mb 56f
8:42 16 20 mph 996.5mb 56f
8:36 17 21 mph 996.5mb 56f
8:30 17 20 mph 996.7mb 55f
8:24 18 20 mph 996.9mb 55f
8:18 17 18 mph 997mb 55f
8:12 16 18 mph 997.1mb 54f
8:06 14 17 mph 997.1mb 54f
8:00 15 17 mph 997.2mb 54f
7:54 14 17 mph 997.3mb 55f
7:48 15 18 mph 997.2mb 55f
7:42 17 21 mph 997.2mb 55f
7:36 20 22 mph 997.1mb 54f
7:30 18 21 mph 997.4mb 54f
7:24 18 22 mph 997.4mb 54f
7:18 20 23 mph 997.4mb 54f
7:12 22 24 mph 997.7mb 54f
7:06 21 23 mph 997.3mb 54f
7:00 20 24 mph 997.8mb 54f
6:54 20 23 mph 998.2mb 55f
6:48 21 23 mph 996.9mb 54f
6:42 20 22 mph 997.2mb 54f
6:36 17 20 mph 998.3mb 53f
6:30 16 18 mph 998.9mb 53f
6:24 15 17 mph 998.9mb 52f
6:18 14 16 mph 999.2mb 52f
6:12 11 14 mph 999.5mb 52f
6:06 13 17 mph 999.8mb 52f
6:00 14 16 mph 1000.2mb 52f
5:54 13 14 mph 999.9mb 52f
5:48 13 14 mph 999.5mb 51f
5:42 9 11 mph 999.7mb 52f
5:36 13 14 mph 999.6mb 52f
5:30 15 17 mph 999.2mb 52f
5:24 16 20 mph 998.8mb 52f
5:18 17 21 mph 998.6mb 53f
5:12 17 22 mph 998.1mb 53f
5:06 17 21 mph 997.7mb 53f
5:00 16 20 mph 997.5mb 53f
4:54 16 22 mph 997.7mb 53f
4:48 17 21 mph 997.9mb 53f
4:42 18 21 mph 997.8mb 53f
4:36 17 20 mph 997.8mb 53f
4:30 15 17 mph 998mb 54f
4:24 16 18 mph 998.2mb 53f
4:18 18 20 mph 998.4mb 53f
4:12 17 20 mph 998.5mb 54f
4:06 17 18 mph 998.8mb 54f
4:00 16 20 mph 999mb 54f
3:54 18 21 mph 999.1mb 54f
3:48 17 20 mph 999.2mb 54f
3:42 18 23 mph 999.3mb 54f
3:36 20 22 mph 999.5mb 54f
3:30 20 22 mph 999.6mb 54f
3:24 20 22 mph 999.8mb 54f
3:18 21 23 mph 1000mb 54f
3:12 16 21 mph 1000.1mb 54f
3:06 17 21 mph 1000.3mb 54f
3:00 17 20 mph 1000.5mb 55f
2:54 18 22 mph 1000.6mb 55f
2:48 21 23 mph 1000.6mb 55f
2:42 20 23 mph 1000.8mb 55f
2:36 20 23 mph 1000.9mb 55f
2:30 22 24 mph 1000.9mb 54f
2:24 21 24 mph 1001.1mb 54f
2:18 18 22 mph 1001.4mb 55f
2:12 20 22 mph 1001.5mb 55f
2:06 20 24 mph 1001.8mb 55f
2:00 21 23 mph 1001.9mb 55f
1:54 17 22 mph 1002.2mb 55f
1:48 20 23 mph 1002.2mb 55f
1:42 18 23 mph 1002.3mb 55f
1:36 17 21 mph 1002.4mb 55f
1:30 15 18 mph 1002.6mb 55f
1:24 11 14 mph 1002.8mb 54f
1:18 10 15 mph 1002.8mb 55f
1:12 11 17 mph 1002.9mb 54f
1:06 16 20 mph 1002.9mb 55f
1:00 15 18 mph 1003mb 54f
12:54 15 18 mph 1003.1mb 54f
12:48 14 16 mph 1003.2mb 54f
12:42 14 17 mph 1003.3mb 54f
12:36 15 18 mph 1003.4mb 54f
12:30 13 15 mph 1003.7mb 53f
12:24 13 16 mph 1003.7mb 53f
12:18 15 16 mph 1003.9mb 53f
12:12 15 16 mph 1004.1mb 53f
12:06 14 16 mph 1004.2mb 53f
12:00 16 18 mph 1004.3mb 53f
Fr 10/24 11:54 17 20 mph 1004.4mb 53f
11:48 17 21 mph 1004.4mb 53f
11:42 15 20 mph 1004.6mb 53f
11:36 16 21 mph 1004.5mb 53f
11:30 17 20 mph 1004.6mb 53f
11:24 17 21 mph 1004.8mb 54f
11:18 15 20 mph 1004.8mb 54f
11:12 15 17 mph 1004.9mb 54f
11:06 15 17 mph 1004.9mb 53f
11:00 14 18 mph 1004.9mb 53f
10:54 14 16 mph 1005.1mb 53f
10:48 13 15 mph 1005.3mb 53f
10:42 14 17 mph 1005.3mb 53f
10:36 14 16 mph 1005.4mb 53f
10:30 14 17 mph 1005.5mb 53f
10:24 15 20 mph 1005.6mb 53f
10:18 16 20 mph 1005.6mb 53f
10:12 16 20 mph 1005.8mb 53f
10:06 16 20 mph 1005.9mb 52f
10:00 17 24 mph 1006mb 52f
9:54 18 20 mph 1006.1mb 52f
9:48 18 21 mph 1006.4mb 51f
9:42 16 20 mph 1006.5mb 51f
9:36 16 18 mph 1006.6mb 51f
9:30 13 15 mph 1006.9mb 51f
9:24 15 20 mph 1007mb 52f
9:18 16 21 mph 1007mb 52f
9:12 16 18 mph 1007mb 52f
9:06 16 20 mph 1007.1mb 52f
9:00 17 21 mph 1007.6mb 52f
8:54 17 21 mph 1007.5mb 52f
8:48 14 16 mph 1007.7mb 52f
8:42 15 17 mph 1007.7mb 52f
8:36 14 15 mph 1008mb 51f
8:30 13 14 mph 1008.2mb 51f
8:24 13 15 mph 1008.1mb 52f
8:18 11 14 mph 1008.4mb 52f
8:12 13 14 mph 1008.2mb 52f
8:06 13 14 mph 1008.3mb 52f
8:00 14 15 mph 1008.5mb 52f
7:54 11 13 mph 1008.7mb 52f
7:48 9 11 mph 1008.8mb 52f
7:42 10 16 mph 1008.8mb 53f
7:36 14 16 mph 1008.7mb 53f
7:30 13 17 mph 1008.7mb 53f
7:24 16 18 mph 1008.7mb 53f
7:18 16 20 mph 1008.7mb 53f
7:12 15 21 mph 1008.6mb 53f
7:06 17 20 mph 1008.7mb 53f
7:00 16 20 mph 1008.8mb 53f
6:54 14 16 mph 1009mb 53f
6:48 14 15 mph 1009.1mb 53f
6:42 14 15 mph 1009.2mb 53f
6:36 11 15 mph 1009.3mb 53f
6:30 11 13 mph 1009.5mb 53f
6:24 10 15 mph 1009.6mb 53f
6:18 10 14 mph 1009.7mb 53f
6:12 10 13 mph 1010mb 54f
6:06 11 14 mph 1010.1mb 54f
6:00 10 13 mph 1010.3mb 54f
5:54 9 10 mph 1010.4mb 54f
5:48 9 10 mph 1010.4mb 54f
5:42 9 10 mph 1010.5mb 54f
5:36 9 13 mph 1010.7mb 54f
5:30 11 13 mph 1010.7mb 55f
5:24 10 14 mph 1010.7mb 55f
5:18 13 14 mph 1010.6mb 55f
5:12 13 16 mph 1010.6mb 55f
5:06 14 16 mph 1010.5mb 55f
5:00 11 14 mph 1010.5mb 55f
4:54 10 14 mph 1010.5mb 55f
4:48 11 16 mph 1010.6mb 55f
4:42 14 17 mph 1010.6mb 55f
4:36 15 18 mph 1010.7mb 55f
4:30 14 20 mph 1010.6mb 55f
4:24 14 21 mph 1010.7mb 55f
4:18 16 22 mph 1010.8mb 55f
4:12 15 20 mph 1011mb 55f
4:06 18 24 mph 1010.9mb 55f
4:00 21 23 mph 1010.8mb 55f
3:54 22 24 mph 1010.9mb 55f
3:48 20 23 mph 1010.9mb 55f
3:42 17 20 mph 1011mb 55f
3:36 16 17 mph 1011.2mb 55f
3:30 16 20 mph 1011.3mb 55f
3:24 17 21 mph 1011.5mb 55f
3:18 17 21 mph 1011.7mb 55f
3:12 16 20 mph 1011.8mb 55f
3:06 16 18 mph 1012mb 55f
3:00 13 17 mph 1012.1mb 55f
2:54 15 18 mph 1012.3mb 55f
2:48 13 15 mph 1012.3mb 55f
2:42 14 15 mph 1012.3mb 55f
2:36 14 16 mph 1012.4mb 55f
2:30 14 15 mph 1012.6mb 55f
2:24 14 15 mph 1012.8mb 55f
2:18 13 16 mph 1012.8mb 55f
2:12 14 17 mph 1012.9mb 55f
2:06 14 15 mph 1013mb 55f
2:00 13 15 mph 1013.1mb 55f
1:54 14 16 mph 1013.2mb 55f
1:48 14 15 mph 1013.2mb 54f
1:42 13 15 mph 1013.4mb 54f
1:36 11 14 mph 1013.6mb 54f
1:30 11 13 mph 1013.6mb 54f
1:24 10 13 mph 1013.7mb 54f
1:18 11 13 mph 1013.8mb 54f
1:12 10 13 mph 1013.9mb 54f
1:06 13 14 mph 1013.9mb 54f
1:00 13 14 mph 1013.9mb 54f
12:54 10 13 mph 1014mb 54f
12:48 9 11 mph 1014.1mb 54f
12:42 9 11 mph 1014.2mb 54f
12:36 8 11 mph 1014.2mb 53f
12:30 9 10 mph 1014.3mb 53f
12:24 10 11 mph 1014.3mb 53f
12:18 9 11 mph 1014.4mb 53f
12:12 10 13 mph 1014.4mb 53f
12:06 11 14 mph 1014.4mb 53f
12:00 11 13 mph 1014.4mb 53f
11:54 11 14 mph 1014.4mb 53f
11:48 10 11 mph 1014.5mb 53f
11:42 10 11 mph 1014.8mb 53f
11:36 9 11 mph 1015mb 53f
11:30 9 11 mph 1015mb 53f
11:24 10 13 mph 1015.2mb 53f
11:18 10 14 mph 1015.3mb 52f
11:12 11 13 mph 1015.3mb 52f
11:06 11 14 mph 1015.2mb 52f
11:00 10 13 mph 1015.1mb 52f
10:54 9 11 mph 1015.1mb 52f
10:48 9 10 mph 1015.3mb 52f
10:42 8 10 mph 1015.4mb 53f
10:36 8 9 mph 1015.5mb 53f
10:30 9 10 mph 1015.6mb 52f
10:24 9 10 mph 1015.6mb 52f
10:18 9 10 mph 1015.6mb 51f
10:12 9 11 mph 1015.6mb 51f
10:06 9 10 mph 1015.6mb 51f
10:00 8 9 mph 1015.8mb 50f
9:54 8 9 mph 1015.8mb 50f
9:48 9 10 mph 1015.8mb 50f
9:42 10 11 mph 1015.8mb 50f
9:36 9 10 mph 1015.8mb 50f
9:30 8 10 mph 1015.8mb 50f
9:24 9 10 mph 1015.8mb 50f
9:18 9 10 mph 1016mb 50f
9:12 9 10 mph 1015.9mb 50f
9:06 9 10 mph 1015.9mb 49f
9:00 9 10 mph 1015.9mb 49f
8:54 7 9 mph 1015.9mb 49f
8:48 8 11 mph 1015.9mb 50f
8:42 10 11 mph 1015.9mb 49f
8:36 10 13 mph 1015.9mb 49f
8:30 11 13 mph 1015.8mb 49f
8:24 9 16 mph 1015.8mb 50f
8:18 13 16 mph 1015.7mb 51f
8:12 15 17 mph 1015.7mb 50f
8:06 16 18 mph 1015.8mb 50f
8:00 15 17 mph 1015.8mb 50f
7:54 15 16 mph 1015.7mb 50f
7:48 14 16 mph 1015.7mb 50f
7:42 14 15 mph 1015.7mb 50f
7:36 14 16 mph 1015.7mb 50f
7:30 14 16 mph 1015.6mb 50f
7:24 14 16 mph 1015.6mb 50f
7:18 14 15 mph 1015.7mb 50f
7:12 14 15 mph 1015.7mb 50f
7:06 13 14 mph 1015.7mb 50f
7:00 13 14 mph 1015.7mb 50f
6:54 13 14 mph 1015.7mb 50f
6:48 13 14 mph 1015.7mb 50f
6:42 10 11 mph 1015.8mb 51f
6:36 9 13 mph 1015.7mb 50f
6:30 11 13 mph 1015.7mb 50f
6:24 9 11 mph 1015.7mb 51f
6:18 9 11 mph 1015.7mb 51f
6:12 10 11 mph 1015.7mb 50f
6:06 10 11 mph 1015.5mb 50f
6:00 9 10 mph 1015.4mb 51f
5:54 10 11 mph 1015.3mb 51f
5:48 11 13 mph 1015.2mb 51f
5:42 13 14 mph 1015.2mb 50f
5:36 13 15 mph 1015.3mb 51f
5:30 14 15 mph 1015.2mb 51f
5:24 15 16 mph 1015.3mb 51f
5:18 15 16 mph 1015.2mb 51f
5:12 14 16 mph 1015.3mb 51f
5:06 15 16 mph 1015.3mb 50f
5:00 15 16 mph 1015.2mb 51f
4:54 14 15 mph 1015.3mb 51f
4:48 11 13 mph 1015.3mb 51f
4:42 11 13 mph 1015.3mb 51f
4:36 11 13 mph 1015.2mb 51f
4:30 11 13 mph 1015.3mb 50f
4:24 11 13 mph 1015.3mb 51f
4:18 11 13 mph 1015.4mb 50f
4:12 10 11 mph 1015.5mb 51f
4:06 11 13 mph 1015.6mb 51f
4:00 11 14 mph 1015.6mb 51f
3:54 13 14 mph 1015.6mb 51f
3:48 11 14 mph 1015.6mb 51f
3:42 13 14 mph 1015.6mb 51f
3:36 13 14 mph 1015.7mb 51f
3:30 11 13 mph 1015.8mb 51f
3:24 11 13 mph 1015.7mb 51f
3:18 11
mph
1015.6mb 51f
3:12 10 11 mph 1015.7mb 51f
3:06 9 10 mph 1015.8mb 51f
3:00 9 10 mph 1015.8mb 51f
2:54 9 10 mph 1015.7mb 51f
2:48 8 9 mph 1015.7mb 51f
2:42 8 9 mph 1015.8mb 51f
2:36 9 11 mph 1015.7mb 51f
2:30 9 10 mph 1015.7mb 51f
2:24 9 10 mph 1015.9mb 51f
2:18 8 9 mph 1015.8mb 52f
2:12 8 9 mph 1015.8mb 52f
2:06 8 9 mph 1015.7mb 52f
2:00 7 8 mph 1015.8mb 52f
1:54 8 9 mph 1015.8mb 52f
1:48 7 8 mph 1015.8mb 52f
1:42 6 8 mph 1015.9mb 53f
1:36 7 9 mph 1015.8mb 53f
1:30 6 8 mph 1015.8mb 52f
1:24 7 8 mph 1015.8mb 52f
1:18 7 9 mph 1015.8mb 52f
1:12 8 9 mph 1015.8mb 51f
1:06 9 10 mph 1015.7mb 51f
1:00 8 9 mph 1015.6mb 51f
12:54 8 9 mph 1015.5mb 51f
12:48 8 9 mph 1015.5mb 51f
12:42 8 10 mph 1015.5mb 51f
12:36 8 9 mph 1015.4mb 51f
12:30 9
mph
1015.3mb 51f
12:24 9 10 mph 1015.3mb 52f
12:18 7 9 mph 1015.2mb 52f
12:12 6 7 mph 1015.3mb 52f
12:06 6 7 mph 1015.3mb 52f
12:00 6 8 mph 1015.2mb 52f
Do 10/23 11:54 7 9 mph 1015.2mb 52f
11:48 8 10 mph 1015.3mb 52f
11:42 8 10 mph 1015.2mb 52f
11:36 9 10 mph 1015mb 52f
11:30 8 10 mph 1014.9mb 52f
11:24 8 10 mph 1015mb 52f
11:18 8 10 mph 1014.9mb 52f
11:12 9 10 mph 1014.8mb 52f
11:06 9 10 mph 1014.9mb 52f
11:00 9 10 mph 1015mb 52f
10:54 9 10 mph 1014.8mb 52f
10:48 7 9 mph 1014.7mb 52f
10:42 8 9 mph 1014.7mb 52f
10:36 8 10 mph 1014.6mb 52f
10:30 9 10 mph 1014.4mb 51f
10:24 8 10 mph 1014.2mb 52f
10:18 9 10 mph 1014.1mb 52f
10:12 8 9 mph 1014.2mb 52f
10:06 8 13 mph 1014.1mb 52f
10:00 8 11 mph 1014.3mb 52f
9:54 7 10 mph 1014.3mb 52f
9:48 10 13 mph 1014.1mb 51f
9:42 11 13 mph 1013.9mb 51f
9:36 13 14 mph 1013.8mb 51f
9:30 13 14 mph 1013.8mb 52f
9:24 11 13 mph 1013.8mb 52f
9:18 8 9 mph 1013.9mb 52f
9:12 7 10 mph 1013.8mb 52f
9:06 9 10 mph 1013.5mb 52f
9:00 9
mph
1013.6mb 52f
8:54 8 9 mph 1013.5mb 52f
8:48 8 9 mph 1013.5mb 52f
8:42 9 11 mph 1013.5mb 52f
8:36 11 13 mph 1013.5mb 52f
8:30 10 11 mph 1013.6mb 52f
8:24 10
mph
1013.4mb 53f
8:18 9 10 mph 1013.4mb 53f
8:12 9 10 mph 1013.4mb 52f
8:06 8 9 mph 1013.6mb 52f
8:00 8
mph
1013.6mb 52f
7:54 8 9 mph 1013.5mb 53f
7:48 7 9 mph 1013.5mb 53f
7:42 7 8 mph 1013.5mb 53f
7:36 7 10 mph 1013.5mb 53f
7:30 8 10 mph 1013.5mb 53f
7:24 7 9 mph 1013.5mb 53f
7:18 8 9 mph 1013.4mb 53f
7:12 8 11 mph 1013.4mb 53f
7:06 10
mph
1013.3mb 53f
7:00 9 10 mph 1013.3mb 53f
6:54 8 10 mph 1013.3mb 53f
6:48 8 9 mph 1013.2mb 54f
6:42 8 10 mph 1013.3mb 54f
6:36 9 11 mph 1013.2mb 54f
6:30 3 5 mph 1013.3mb 54f
6:24 3
mph
1013.2mb 54f
6:18 3 6 mph 1013.1mb 54f
6:12 5 6 mph 1012.9mb 54f
6:06 3
mph
1012.8mb 54f
6:00 3
mph
1012.8mb 54f
5:54 3 6 mph 1012.8mb 54f
5:48 6 9 mph 1012.9mb 54f
5:42 7 9 mph 1012.8mb 55f
5:36 9 11 mph 1012.8mb 55f
5:30 7 11 mph 1012.8mb 55f
5:24 9 11 mph 1012.8mb 56f
5:18 3 6 mph 1012.6mb 55f
5:12 6 14 mph 1012.6mb 55f
5:06 8 10 mph 1012.5mb 56f
5:00 7 10 mph 1012.5mb 56f
4:54 7 11 mph 1012.4mb 56f
4:48 9 11 mph 1012.3mb 56f
4:42 11 15 mph 1012.2mb 56f
4:36 10 16 mph 1012.1mb 56f
4:30 7 15 mph 1012.2mb 56f
4:24 6 16 mph 1012.2mb 55f
4:18 7 14 mph 1012.1mb 56f
4:12 7 11 mph 1012mb 58f
4:06 1 3 mph 1011.9mb 57f
4:00 3 10 mph 1011.9mb 57f
3:54 9 13 mph 1011.7mb 57f
3:48 7 10 mph 1011.5mb 56f
3:42 8 10 mph 1011.5mb 56f
3:36 9 10 mph 1011.2mb 56f
3:30 7 9 mph 1011.2mb 56f
3:24 9 13 mph 1011.3mb 56f
3:18 13 14 mph 1011.3mb 56f
3:12 10 15 mph 1011.3mb 56f
3:06 13 16 mph 1011.2mb 56f
3:00 15 18 mph 1011.1mb 56f
2:54 14 24 mph 1011mb 56f
2:48 6 16 mph 1010.9mb 58f
2:42 2 16 mph 1010.8mb 57f
2:36 16 26 mph 1010.9mb 56f
2:30 6 14 mph 1011mb 56f
2:24 3 8 mph 1010.7mb 58f
2:18 2 13 mph 1010.7mb 58f
2:12 3 8 mph 1010.7mb 59f
2:06 2 8 mph 1010.6mb 59f
2:00 3 16 mph 1010.6mb 59f
1:54 3 13 mph 1010.6mb 59f
1:48 5 13 mph 1010.5mb 59f
1:42 3 13 mph 1010.4mb 60f
1:36 6 14 mph 1010.4mb 59f
1:30 6 16 mph 1010.5mb 60f
1:24 2 10 mph 1010.5mb 60f
1:18 2 7 mph 1010.4mb 59f
1:12 2 11 mph 1010.4mb 59f
1:06 2 9 mph 1010.4mb 60f
1:00 3 14 mph 1010.4mb 60f
12:54 2 10 mph 1010.3mb 60f
12:48 3 11 mph 1010.2mb 60f
12:42 3 11 mph 1010.1mb 60f
12:36 2 8 mph 1010.1mb 60f
12:30 2 10 mph 1010mb 59f
12:24 2 7 mph 1009.9mb 60f
12:18 2 10 mph 1009.9mb 60f
12:12 2 6 mph 1009.8mb 60f
12:06 3 13 mph 1009.7mb 60f
12:00 3 10 mph 1009.7mb 59f
11:54 2 7 mph 1009.7mb 59f
11:48 2 7 mph 1009.7mb 59f
11:42 2 9 mph 1009.7mb 59f
11:36 3 8 mph 1009.6mb 59f
11:30 3 9 mph 1009.6mb 59f
11:24 2 10 mph 1009.4mb 59f
11:18 2 6 mph 1009.4mb 59f
11:12 2 6 mph 1009.3mb 59f
11:06 2 8 mph 1009.3mb 58f
11:00 3 8 mph 1009.2mb 58f
10:54 5 14 mph 1009.2mb 57f
10:48 13 21 mph 1009mb 55f
10:42 18 21 mph 1008.9mb 55f
10:36 16 20 mph 1008.8mb 54f
10:30 16 20 mph 1008.7mb 54f
10:24 13 20 mph 1008.6mb 56f
10:18 13 15 mph 1008.5mb 57f
10:12 10 15 mph 1008.4mb 57f
10:06 11 16 mph 1008.3mb 57f
10:00 14 16 mph 1008.2mb 56f
9:54 11 14 mph 1008.2mb 56f
9:48 13 14 mph 1008mb 55f
9:42 13 14 mph 1007.9mb 55f
9:36 11 13 mph 1007.9mb 55f
9:30 8 11 mph 1007.9mb 55f
9:24 10 11 mph 1007.8mb 55f
9:18 6 10 mph 1007.7mb 55f
9:12 8 13 mph 1007.6mb 55f
9:06 11 17 mph 1007.5mb 55f
9:00 9 14 mph 1007.5mb 55f
8:54 2 9 mph 1007.4mb 54f
8:48 2 6 mph 1007.3mb 53f
8:42 1 6 mph 1007.3mb 53f
8:36 1 3 mph 1007.2mb 52f
8:30 6 11 mph 1007.1mb 51f
8:24 7 15 mph 1007.1mb 51f
8:18 9 13 mph 1007.2mb 51f
8:12 6 10 mph 1006.9mb 52f
8:06 1 7 mph 1006.9mb 53f
8:00 3 13 mph 1006.8mb 53f
7:54 11 23 mph 1006.8mb 53f
7:48 21 25 mph 1006.6mb 53f
7:42 14 17 mph 1006.4mb 53f
7:36 15 20 mph 1006.2mb 54f
7:30 18 21 mph 1006mb 54f
7:24 17 21 mph 1006mb 53f
7:18 15 22 mph 1006mb 53f
7:12 21 24 mph 1006mb 53f
7:06 20 24 mph 1006mb 53f
7:00 21 25 mph 1005.9mb 54f
6:54 20 23 mph 1005.9mb 53f
6:48 17 21 mph 1005.9mb 53f
6:42 16 21 mph 1005.9mb 54f
6:36 20 23 mph 1005.9mb 54f
6:30 21 24 mph 1005.8mb 54f
6:24 20 24 mph 1005.6mb 54f
6:18 20 25 mph 1005.6mb 54f
6:12 18 22 mph 1005.7mb 54f
6:06 20 23 mph 1005.5mb 54f
6:00 21 25 mph 1005.4mb 53f
5:54 22 26 mph 1005.5mb 54f
5:48 23 26 mph 1005.5mb 54f
5:42 22 26 mph 1005.5mb 54f
5:36 21 26 mph 1005.4mb 54f
5:30 22 26 mph 1005.3mb 54f
5:24 20 26 mph 1005.4mb 54f
5:18 22 26 mph 1005.3mb 54f
5:12 23 29 mph 1005.6mb 55f
5:06 25 29 mph 1005.5mb 55f
5:00 24 26 mph 1005.4mb 55f
4:54 21 26 mph 1005.3mb 55f
4:48 22 26 mph 1005.3mb 56f
4:42 17 20 mph 1005.4mb 56f
4:36 15 17 mph 1005.3mb 56f
4:30 15 17 mph 1005.2mb 56f
4:24 14 17 mph 1005.2mb 56f
4:18 15 18 mph 1005mb 56f
4:12 15 16 mph 1005mb 56f
4:06 14 16 mph 1005.1mb 56f
4:00 15 17 mph 1005.3mb 56f
3:54 15 17 mph 1005.4mb 56f
3:48 14 16 mph 1005.5mb 56f
3:42 13 16 mph 1005.4mb 56f
3:36 11 14 mph 1005.5mb 56f
3:30 11 15 mph 1005.2mb 56f
3:24 13 15 mph 1005.4mb 56f
3:18 13 14 mph 1005.6mb 57f
3:12 13 14 mph 1005.9mb 57f
3:06 13 14 mph 1005.9mb 56f
3:00 11 14 mph 1005.7mb 57f
2:54 13 14 mph 1005.6mb 57f
2:48 10 11 mph 1005.2mb 57f
2:42 10 11 mph 1005.4mb 57f
2:36 8 10 mph 1005.4mb 57f
2:30 9 10 mph 1005.5mb 56f
2:24 9 11 mph 1005.8mb 56f
2:18 10 11 mph 1005.7mb 56f
2:12 10 11 mph 1005.5mb 57f
2:06 9 13 mph 1005.5mb 57f
2:00 11 13 mph 1005.7mb 57f
1:54 14 15 mph 1005.8mb 56f
1:48 14 16 mph 1005.8mb 57f
1:42 14 15 mph 1005.9mb 57f
1:36 13 14 mph 1006mb 57f
1:30 11 14 mph 1005.9mb 57f
1:24 11 14 mph 1005.9mb 56f
1:18 11 14 mph 1005.9mb 57f
1:12 13 15 mph 1005.9mb 57f
1:06 13 16 mph 1005.8mb 57f
1:00 14 16 mph 1005.9mb 57f
12:54 15 17 mph 1005.9mb 57f
12:48 15 20 mph 1005.9mb 57f
12:42 16 21 mph 1006mb 57f
12:36 18 21 mph 1005.9mb 57f
12:30 17 22 mph 1006mb 57f
12:24 16 21 mph 1006mb 57f
12:18 13 17 mph 1006mb 58f
12:12 13 17 mph 1005.9mb 58f
12:06 3 9 mph 1005.8mb 58f
12:00 2 6 mph 1005.7mb 58f
Mi 10/22 11:54 2 9 mph 1005.7mb 58f
11:48 2 6 mph 1005.7mb 58f
11:42 2 7 mph 1005.6mb 59f
11:36 2 6 mph 1005.6mb 58f
11:30 2 9 mph 1005.6mb 59f
11:24 3 8 mph 1005.5mb 59f
11:18 2 8 mph 1005.5mb 59f
11:12 3 7 mph 1005.4mb 59f
11:06 2 6 mph 1005.4mb 59f
11:00 3 6 mph 1005.2mb 59f
10:54 2 8 mph 1005.2mb 59f
10:48 2 8 mph 1005mb 59f
10:42 2 8 mph 1005mb 59f
10:36 2 7 mph 1004.9mb 59f
10:30 2 9 mph 1004.8mb 59f
10:24 5 10 mph 1004.8mb 59f
10:18 5 13 mph 1004.8mb 58f
10:12 10 16 mph 1004.7mb 58f
10:06 10 17 mph 1004.6mb 58f
10:00 10 16 mph 1004.5mb 57f
9:54 2 10 mph 1004.5mb 57f
9:48 6 15 mph 1004.4mb 56f
9:42 10 21 mph 1004.2mb 56f
9:36 17 22 mph 1003.9mb 58f
9:30 18 23 mph 1003.6mb 58f
9:24 18 23 mph 1003.6mb 58f
9:18 18 23 mph 1003.5mb 58f
9:12 17 24 mph 1003.4mb 58f
9:06 15 20 mph 1003.2mb 59f
9:00 11 20 mph 1003.2mb 59f
8:54 10 18 mph 1003.2mb 59f
8:48 10 15 mph 1003.1mb 59f
8:42 7 17 mph 1003mb 58f
8:36 9 17 mph 1003mb 58f
8:30 7 15 mph 1003mb 58f
8:24 11 18 mph 1003.1mb 58f
8:18 14 17 mph 1003mb 58f
8:12 13 17 mph 1002.9mb 58f
8:06 10 15 mph 1002.9mb 58f
8:00 8 17 mph 1002.8mb 58f
7:54 9 15 mph 1002.5mb 58f
7:48 7 16 mph 1002.5mb 58f
7:42 9 17 mph 1002.5mb 58f
7:36 7 14 mph 1002.3mb 58f
7:30 2 6 mph 1002.3mb 58f
7:24 2 8 mph 1002.3mb 58f
7:18 5 9 mph 1002.2mb 57f
7:12 2 7 mph 1001.8mb 57f
7:06 8 17 mph 1002.1mb 58f
7:00 7 21 mph 1002mb 56f
6:54 14 25 mph 1002mb 55f
6:48 11 26 mph 1001.6mb 55f
6:42 15 25 mph 1001.5mb 56f
6:36 10 20 mph 1001.4mb 57f
6:30 8 23 mph 1001.6mb 57f
6:24 20 29 mph 1001.6mb 57f
6:18 21 29 mph 1001.5mb 57f
6:12 20 30 mph 1001.4mb 57f
6:06 23 30 mph 1001.3mb 57f
6:00 22 29 mph 1001.3mb 57f
5:54 24 31 mph 1001.3mb 57f
5:48 24 36 mph 1001.2mb 57f
5:42 24 31 mph 1001.2mb 57f
5:36 26 32 mph 1001.3mb 57f
5:30 26 34 mph 1001.3mb 57f
5:24 26 36 mph 1001.2mb 58f
5:18 25 32 mph 1001.2mb 58f
5:12 28 33 mph 1001.1mb 57f
5:06 22 31 mph 1001.1mb 57f
5:00 24 30 mph 1001.3mb 57f
4:54 23 30 mph 1001.2mb 57f
4:48 23 28 mph 1001.2mb 57f
4:42 21 26 mph 1001.3mb 58f
4:36 22 24 mph 1001.5mb 57f
4:30 22 26 mph 1001.6mb 57f
4:24 22 32 mph 1001.5mb 57f
4:18 21 24 mph 1001.6mb 58f
4:12 22 25 mph 1001.7mb 58f
4:06 20 24 mph 1001.7mb 58f
4:00 22 24 mph 1001.7mb 58f
3:54 21 23 mph 1001.8mb 58f
3:48 21 24 mph 1001.9mb 58f
3:42 16 22 mph 1002.1mb 58f
3:36 18 21 mph 1002mb 58f
3:30 13 15 mph 1002.1mb 58f
3:24 14 17 mph 1002.3mb 58f
3:18 13 14 mph 1002.5mb 57f
3:12 13 15 mph 1002.5mb 57f
3:06 13 14 mph 1002.5mb 58f
3:00 13 14 mph 1002.6mb 58f
2:54 11 14 mph 1002.6mb 58f
2:48 11 14 mph 1002.7mb 58f
2:42 11 14 mph 1002.7mb 58f
2:36 11 13 mph 1002.7mb 58f
2:30 13 15 mph 1002.8mb 58f
2:24 11 16 mph 1002.9mb 58f
2:18 14 17 mph 1002.9mb 58f
2:12 14 16 mph 1002.8mb 58f
2:06 13 18 mph 1003.1mb 58f
2:00 16 18 mph 1003.3mb 58f
1:54 16 18 mph 1003.3mb 58f
1:48 16 20 mph 1003.3mb 58f
1:18 15 23 mph 1004mb 58f
1:12 15 20 mph 1004.1mb 57f
1:06 14 16 mph 1004.3mb 57f
1:00 9 13 mph 1004.3mb 57f
12:54 8 14 mph 1004.5mb 57f
12:48 11 14 mph 1004.6mb 56f
12:42 11 14 mph 1004.7mb 57f
12:36 14 17 mph 1004.8mb 57f
12:30 16 20 mph 1004.8mb 57f
12:24 17 20 mph 1004.9mb 57f
12:18 13 14 mph 1005.1mb 58f
12:12 13 15 mph 1005.1mb 57f
12:06 10 15 mph 1005mb 58f
12:00 14 16 mph 1005.1mb 58f
11:54 14 15 mph 1005.1mb 58f
11:48 14 16 mph 1005.2mb 58f
11:42 14 15 mph 1005.2mb 58f
11:36 11 13 mph 1005.2mb 58f
11:30 11 14 mph 1005.2mb 58f
11:24 13 14 mph 1005.3mb 58f
11:18 13 15 mph 1005.3mb 58f
11:12 11 14 mph 1005.3mb 58f
11:06 13 16 mph 1005.1mb 58f
11:00 11 15 mph 1005mb 57f
10:54 9 14 mph 1005.3mb 57f
10:48 13 17 mph 1005.4mb 56f
10:42 13 21 mph 1005.6mb 57f
10:36 16 17 mph 1005.6mb 57f
10:30 16 17 mph 1005.5mb 57f
10:24 15 18 mph 1005.3mb 58f
10:18 16 21 mph 1005.1mb 58f
10:12 16 18 mph 1005mb 58f
10:06 13 14 mph 1005.5mb 58f
10:00 13 14 mph 1005.4mb 58f
9:54 11 14 mph 1005.4mb 58f
9:48 10 11 mph 1005.3mb 58f
9:42 9 10 mph 1005.4mb 58f
9:36 10 13 mph 1005.3mb 58f
9:30 11 14 mph 1005.3mb 58f
9:24 11 14 mph 1004.8mb 58f
9:18 10 14 mph 1005.2mb 58f
9:12 11 14 mph 1005.3mb 58f
9:06 10 11 mph 1005.1mb 58f
9:00 10 14 mph 1005.1mb 58f
8:54 11 13 mph 1005mb 58f
8:48 13 15 mph 1005.2mb 58f
8:42 11 14 mph 1005.1mb 58f
8:36 13 15 mph 1004.9mb 58f
8:30 9 10 mph 1004.8mb 59f
8:24 7 8 mph 1005mb 59f
8:18 6 9 mph 1005.1mb 59f
8:12 5 8 mph 1005.3mb 59f
8:06 5 7 mph 1005mb 59f
8:00 6 8 mph 1004.9mb 59f
7:54 6 8 mph 1004.7mb 59f
7:48 7 9 mph 1004.8mb 59f
7:42 7 11 mph 1004.9mb 59f
7:36 8 11 mph 1004.7mb 59f
7:30 7 10 mph 1004.9mb 59f
7:24 5 10 mph 1004.9mb 59f
7:18 3 6 mph 1004.9mb 58f
7:12 1 6 mph 1004.9mb 58f
7:06 2 8 mph 1004.7mb 58f
7:00 1 8 mph 1004.9mb 58f
6:54 6 11 mph 1004.6mb 58f
6:48 7 14 mph 1004.6mb 58f
6:42 2 6 mph 1004.7mb 58f
6:36 2 6 mph 1004.8mb 58f
6:30 2 7 mph 1004.9mb 59f
6:24 2 11 mph 1004.7mb 59f
6:18 3 15 mph 1004.9mb 59f
6:12 6 14 mph 1004.6mb 59f
6:06 5 11 mph 1004.7mb 59f
6:00 3 13 mph 1004.8mb 59f
5:54 8 13 mph 1004.8mb 59f
5:48 8 13 mph 1004.8mb 59f
5:42 8 15 mph 1004.7mb 59f
5:36 10 16 mph 1004.6mb 59f
5:30 11 17 mph 1004.5mb 59f
5:24 11 16 mph 1004.4mb 59f
5:18 9 16 mph 1004.4mb 59f
5:12 9 16 mph 1004.4mb 59f
5:06 8 15 mph 1004.2mb 59f
5:00 11 17 mph 1004.2mb 59f
4:54 9 16 mph 1004mb 59f
4:48 9 16 mph 1003.9mb 59f
4:42 5 11 mph 1003.8mb 58f
4:36 2 10 mph 1003.7mb 58f
4:30 2 17 mph 1003.5mb 58f
4:24 14 25 mph 1003.4mb 58f
4:18 20 24 mph 1003.3mb 58f
4:12 20 24 mph 1003.2mb 58f
4:06 17 26 mph 1003.1mb 58f
4:00 23 28 mph 1003.1mb 59f
3:54 23 29 mph 1003.1mb 59f
3:48 23 30 mph 1003.2mb 59f
3:42 25 32 mph 1003.2mb 59f
3:36 23 33 mph 1003.2mb 59f
3:30 28 40 mph 1003.2mb 59f
3:24 28 40 mph 1003.3mb 59f
3:18 24 31 mph 1003.6mb 59f
3:12 26 34 mph 1003.8mb 59f
3:06 28 39 mph 1003.6mb 58f
3:00 24 34 mph 1003.8mb 58f
2:54 34 40 mph 1003.4mb 58f
2:48 34 47 mph 1003.1mb 58f
2:42 29 39 mph 1003mb 58f
2:36 31 38 mph 1003mb 58f
2:30 32 40 mph 1003.1mb 58f
2:24 32 43 mph 1003.2mb 58f
2:18 32 45 mph 1003.2mb 59f
2:12 36 43 mph 1003.2mb 58f
2:06 36 41 mph 1003.3mb 59f
2:00 33 47 mph 1003.5mb 59f
1:54 36 47 mph 1003.5mb 58f
1:48 37 46 mph 1003.5mb 58f
1:42 32 45 mph 1003.6mb 58f
1:36 30 40 mph 1003.7mb 58f
1:30 29 37 mph 1003.9mb 58f
1:24 28 36 mph 1004mb 57f
1:18 26 32 mph 1004.1mb 57f
1:12 24 30 mph 1004.2mb 56f
1:06 24 31 mph 1004.2mb 56f
1:00 24 30 mph 1004.3mb 56f
12:54 24 30 mph 1004.4mb 56f
12:48 28 33 mph 1004.4mb 57f
12:42 25 31 mph 1004.5mb 57f
12:36 22 30 mph 1004.7mb 57f
12:30 22 28 mph 1004.7mb 57f
12:24 21 29 mph 1004.7mb 57f
12:18 22 28 mph 1004.7mb 57f
12:12 20 24 mph 1004.8mb 57f
12:06 23 29 mph 1005mb 57f
12:00 22 28 mph 1005mb 57f
Di 10/21 11:54 21 26 mph 1005.2mb 57f
11:48 21 26 mph 1005.2mb 57f
11:42 22 26 mph 1005.3mb 57f
11:36 20 25 mph 1005.4mb 56f
11:30 20 24 mph 1005.5mb 56f
11:24 20 24 mph 1005.7mb 56f
11:18 21 24 mph 1005.8mb 56f
11:12 17 24 mph 1005.9mb 56f
11:06 18 25 mph 1005.9mb 56f
11:00 23 28 mph 1005.8mb 56f
10:54 22 26 mph 1005.8mb 56f
10:48 21 28 mph 1006.1mb 57f
10:42 22 30 mph 1006.1mb 57f
10:36 23 29 mph 1006mb 57f
10:30 23 28 mph 1006mb 57f
10:24 21 26 mph 1006mb 58f
10:18 22 29 mph 1006.1mb 57f
10:12 22 24 mph 1006.2mb 57f
10:06 23 29 mph 1006.3mb 57f
10:00 22 25 mph 1006.4mb 57f
9:54 21 26 mph 1006.5mb 57f
9:48 20 23 mph 1006.6mb 57f
9:42 17 22 mph 1006.7mb 57f
9:36 18 21 mph 1006.8mb 56f
9:30 17 21 mph 1007mb 56f
9:24 18 23 mph 1007.2mb 56f
9:18 17 20 mph 1007.4mb 56f
9:12 17 20 mph 1007.6mb 56f
9:06 15 18 mph 1007.7mb 56f
9:00 15 17 mph 1007.8mb 56f
8:54 18 21 mph 1007.8mb 56f
8:48 18 23 mph 1008mb 56f
8:42 21 25 mph 1008.1mb 56f
8:36 23 29 mph 1008.1mb 56f
8:30 22 25 mph 1008.2mb 56f
8:24 22 28 mph 1008.3mb 56f
8:18 22 26 mph 1008.5mb 56f
8:12 21 28 mph 1008.5mb 56f
8:06 25 31 mph 1008.7mb 56f
8:00 25 33 mph 1008.7mb 57f
7:54 25 34 mph 1008.6mb 57f
7:48 29 36 mph 1008.7mb 57f
7:42 30 39 mph 1008.9mb 56f
7:36 29 37 mph 1009mb 56f
7:30 26 33 mph 1009.1mb 56f
7:24 25 30 mph 1009.1mb 57f
7:18 29 36 mph 1009mb 57f
7:12 28 41 mph 1009.1mb 57f
7:06 33 44 mph 1009mb 57f
7:00 34 41 mph 1009.1mb 57f
6:54 33 43 mph 1009.2mb 57f
6:48 32 40 mph 1009.2mb 57f
6:42 30 37 mph 1009.3mb 57f
6:36 30 39 mph 1009.3mb 57f
6:30 31 37 mph 1009.2mb 58f
6:24 31 38 mph 1009.3mb 59f
6:18 30 38 mph 1009.3mb 60f
6:12 28 38 mph 1009.4mb 60f
6:06 29 36 mph 1009.5mb 59f
6:00 31 37 mph 1009.5mb 59f
5:54 33 41 mph 1009.7mb 59f
5:48 30 37 mph 1009.7mb 59f
5:42 30 37 mph 1009.9mb 59f
5:36 32 43 mph 1009.9mb 59f
5:30 32 40 mph 1009.9mb 60f
5:24 28 37 mph 1010mb 60f
5:18 30 34 mph 1010mb 60f
5:12 28 33 mph 1010.2mb 60f
5:06 29 34 mph 1010.3mb 60f
5:00 28 37 mph 1010.3mb 60f
4:54 29 37 mph 1010.4mb 60f
4:48 31 36 mph 1010.4mb 60f
4:42 30 37 mph 1010.4mb 60f
4:36 29 38 mph 1010.4mb 60f